sensor_id;sensor_type;location;lat;lon;timestamp;pressure;altitude;pressure_sealevel;temperature;humidity
24858;BME280;12935;50.782;6.074;2023-04-09T00:01:21;100370.38;;;8.77;100.00
24858;BME280;12935;50.782;6.074;2023-04-09T00:03:46;100371.44;;;8.72;100.00
24858;BME280;12935;50.782;6.074;2023-04-09T00:06:11;100361.28;;;8.69;100.00
24858;BME280;12935;50.782;6.074;2023-04-09T00:08:37;100369.78;;;8.68;100.00
24858;BME280;12935;50.782;6.074;2023-04-09T00:11:02;100366.94;;;8.61;100.00
24858;BME280;12935;50.782;6.074;2023-04-09T00:13:28;100357.03;;;8.53;100.00
24858;BME280;12935;50.782;6.074;2023-04-09T00:15:53;100361.25;;;8.50;100.00
24858;BME280;12935;50.782;6.074;2023-04-09T00:18:18;100354.91;;;8.42;100.00
24858;BME280;12935;50.782;6.074;2023-04-09T00:20:44;100354.03;;;8.38;100.00
24858;BME280;12935;50.782;6.074;2023-04-09T00:23:09;100353.31;;;8.41;100.00
24858;BME280;12935;50.782;6.074;2023-04-09T00:25:34;100353.59;;;8.36;100.00
24858;BME280;12935;50.782;6.074;2023-04-09T00:28:00;100355.81;;;8.31;100.00
24858;BME280;12935;50.782;6.074;2023-04-09T00:30:27;100344.59;;;8.32;100.00
24858;BME280;12935;50.782;6.074;2023-04-09T00:32:54;100343.50;;;8.37;100.00
24858;BME280;12935;50.782;6.074;2023-04-09T00:35:19;100351.75;;;8.40;100.00
24858;BME280;12935;50.782;6.074;2023-04-09T00:37:45;100346.38;;;8.44;100.00
24858;BME280;12935;50.782;6.074;2023-04-09T00:40:10;100344.44;;;8.44;100.00
24858;BME280;12935;50.782;6.074;2023-04-09T00:42:36;100340.56;;;8.46;100.00
24858;BME280;12935;50.782;6.074;2023-04-09T00:45:02;100347.16;;;8.44;100.00
24858;BME280;12935;50.782;6.074;2023-04-09T00:47:29;100341.38;;;8.46;100.00
24858;BME280;12935;50.782;6.074;2023-04-09T00:49:56;100339.06;;;8.48;100.00
24858;BME280;12935;50.782;6.074;2023-04-09T00:52:22;100336.34;;;8.48;100.00
24858;BME280;12935;50.782;6.074;2023-04-09T00:54:48;100342.63;;;8.52;100.00
24858;BME280;12935;50.782;6.074;2023-04-09T00:57:14;100338.75;;;8.53;100.00
24858;BME280;12935;50.782;6.074;2023-04-09T00:59:40;100339.47;;;8.50;100.00
24858;BME280;12935;50.782;6.074;2023-04-09T01:02:06;100339.44;;;8.47;100.00
24858;BME280;12935;50.782;6.074;2023-04-09T01:04:31;100338.34;;;8.51;100.00
24858;BME280;12935;50.782;6.074;2023-04-09T01:10:35;100338.75;;;8.53;100.00
24858;BME280;12935;50.782;6.074;2023-04-09T01:13:08;100330.91;;;8.48;100.00
24858;BME280;12935;50.782;6.074;2023-04-09T01:15:43;100335.56;;;8.48;100.00
24858;BME280;12935;50.782;6.074;2023-04-09T01:18:17;100328.72;;;8.38;100.00
24858;BME280;12935;50.782;6.074;2023-04-09T01:21:05;100323.59;;;8.33;100.00
24858;BME280;12935;50.782;6.074;2023-04-09T01:28:52;100329.03;;;7.98;100.00
24858;BME280;12935;50.782;6.074;2023-04-09T01:31:20;100326.06;;;7.87;100.00
24858;BME280;12935;50.782;6.074;2023-04-09T01:33:50;100324.06;;;7.84;100.00
24858;BME280;12935;50.782;6.074;2023-04-09T01:36:17;100327.22;;;7.86;100.00
24858;BME280;12935;50.782;6.074;2023-04-09T01:38:44;100328.78;;;7.87;100.00
24858;BME280;12935;50.782;6.074;2023-04-09T01:41:13;100331.59;;;7.91;100.00
24858;BME280;12935;50.782;6.074;2023-04-09T01:43:40;100313.97;;;7.85;100.00
24858;BME280;12935;50.782;6.074;2023-04-09T01:46:06;100321.06;;;7.89;100.00
24858;BME280;12935;50.782;6.074;2023-04-09T01:48:32;100318.28;;;7.86;100.00
24858;BME280;12935;50.782;6.074;2023-04-09T01:50:58;100311.25;;;7.85;100.00
24858;BME280;12935;50.782;6.074;2023-04-09T01:53:24;100317.13;;;7.87;100.00
24858;BME280;12935;50.782;6.074;2023-04-09T01:55:53;100318.19;;;7.82;100.00
24858;BME280;12935;50.782;6.074;2023-04-09T01:58:19;100318.09;;;7.79;100.00
24858;BME280;12935;50.782;6.074;2023-04-09T02:00:46;100313.38;;;7.75;100.00
24858;BME280;12935;50.782;6.074;2023-04-09T02:03:25;100312.56;;;7.75;100.00
24858;BME280;12935;50.782;6.074;2023-04-09T02:05:56;100310.50;;;7.68;100.00
24858;BME280;12935;50.782;6.074;2023-04-09T02:08:26;100317.09;;;7.67;100.00
24858;BME280;12935;50.782;6.074;2023-04-09T02:10:55;100312.69;;;7.63;100.00
24858;BME280;12935;50.782;6.074;2023-04-09T02:13:22;100315.69;;;7.58;100.00
24858;BME280;12935;50.782;6.074;2023-04-09T02:15:50;100318.34;;;7.54;100.00
24858;BME280;12935;50.782;6.074;2023-04-09T02:18:27;100312.03;;;7.50;100.00
24858;BME280;12935;50.782;6.074;2023-04-09T02:20:54;100307.28;;;7.47;100.00
24858;BME280;12935;50.782;6.074;2023-04-09T02:23:20;100313.41;;;7.44;100.00
24858;BME280;12935;50.782;6.074;2023-04-09T02:25:46;100302.81;;;7.39;100.00
24858;BME280;12935;50.782;6.074;2023-04-09T02:28:11;100293.59;;;7.28;100.00
24858;BME280;12935;50.782;6.074;2023-04-09T02:30:36;100292.03;;;7.27;100.00
24858;BME280;12935;50.782;6.074;2023-04-09T02:33:02;100294.31;;;7.25;100.00
24858;BME280;12935;50.782;6.074;2023-04-09T02:35:27;100292.38;;;7.25;100.00
24858;BME280;12935;50.782;6.074;2023-04-09T02:37:52;100297.03;;;7.25;100.00
24858;BME280;12935;50.782;6.074;2023-04-09T02:40:17;100285.66;;;7.19;100.00
24858;BME280;12935;50.782;6.074;2023-04-09T02:42:43;100291.34;;;7.14;100.00
24858;BME280;12935;50.782;6.074;2023-04-09T02:45:08;100282.59;;;7.05;100.00
24858;BME280;12935;50.782;6.074;2023-04-09T02:47:34;100281.09;;;7.08;100.00
24858;BME280;12935;50.782;6.074;2023-04-09T02:49:59;100272.75;;;7.00;100.00
24858;BME280;12935;50.782;6.074;2023-04-09T02:52:24;100277.22;;;7.09;100.00
24858;BME280;12935;50.782;6.074;2023-04-09T02:54:51;100277.84;;;7.02;100.00
24858;BME280;12935;50.782;6.074;2023-04-09T02:57:16;100275.47;;;7.00;100.00
24858;BME280;12935;50.782;6.074;2023-04-09T02:59:42;100276.06;;;6.94;100.00
24858;BME280;12935;50.782;6.074;2023-04-09T03:02:07;100278.44;;;6.80;100.00
24858;BME280;12935;50.782;6.074;2023-04-09T03:04:32;100280.28;;;6.76;100.00
24858;BME280;12935;50.782;6.074;2023-04-09T03:06:57;100275.66;;;6.76;100.00
24858;BME280;12935;50.782;6.074;2023-04-09T03:09:22;100274.66;;;6.68;100.00
24858;BME280;12935;50.782;6.074;2023-04-09T03:11:48;100273.94;;;6.56;100.00
24858;BME280;12935;50.782;6.074;2023-04-09T03:14:13;100277.50;;;6.44;100.00
24858;BME280;12935;50.782;6.074;2023-04-09T03:16:38;100274.69;;;6.41;100.00
24858;BME280;12935;50.782;6.074;2023-04-09T03:19:04;100270.84;;;6.42;100.00
24858;BME280;12935;50.782;6.074;2023-04-09T03:21:29;100269.59;;;6.39;100.00
24858;BME280;12935;50.782;6.074;2023-04-09T03:23:54;100272.41;;;6.43;100.00
24858;BME280;12935;50.782;6.074;2023-04-09T03:26:19;100274.00;;;6.44;100.00
24858;BME280;12935;50.782;6.074;2023-04-09T03:28:45;100269.09;;;6.49;100.00
24858;BME280;12935;50.782;6.074;2023-04-09T03:31:10;100264.66;;;6.57;100.00
24858;BME280;12935;50.782;6.074;2023-04-09T03:33:35;100264.31;;;6.58;100.00
24858;BME280;12935;50.782;6.074;2023-04-09T03:36:01;100270.81;;;6.69;100.00
24858;BME280;12935;50.782;6.074;2023-04-09T03:38:26;100255.75;;;6.72;100.00
24858;BME280;12935;50.782;6.074;2023-04-09T03:40:51;100261.78;;;6.81;100.00
24858;BME280;12935;50.782;6.074;2023-04-09T03:43:16;100248.53;;;6.80;100.00
24858;BME280;12935;50.782;6.074;2023-04-09T03:45:42;100257.25;;;6.85;100.00
24858;BME280;12935;50.782;6.074;2023-04-09T03:48:07;100255.22;;;6.82;100.00
24858;BME280;12935;50.782;6.074;2023-04-09T03:50:39;100255.66;;;6.84;100.00
24858;BME280;12935;50.782;6.074;2023-04-09T03:53:05;100256.44;;;6.85;100.00
24858;BME280;12935;50.782;6.074;2023-04-09T03:55:31;100250.22;;;6.84;100.00
24858;BME280;12935;50.782;6.074;2023-04-09T03:57:56;100261.63;;;6.90;100.00
24858;BME280;12935;50.782;6.074;2023-04-09T04:00:21;100260.56;;;6.94;100.00
24858;BME280;12935;50.782;6.074;2023-04-09T04:02:46;100257.16;;;6.97;100.00
24858;BME280;12935;50.782;6.074;2023-04-09T04:05:12;100251.03;;;7.00;100.00
24858;BME280;12935;50.782;6.074;2023-04-09T04:07:37;100253.19;;;6.95;100.00
24858;BME280;12935;50.782;6.074;2023-04-09T04:10:05;100255.41;;;6.89;100.00
24858;BME280;12935;50.782;6.074;2023-04-09T04:12:30;100251.81;;;6.85;100.00
24858;BME280;12935;50.782;6.074;2023-04-09T04:14:56;100261.69;;;6.93;100.00
24858;BME280;12935;50.782;6.074;2023-04-09T04:17:22;100254.53;;;7.01;100.00
24858;BME280;12935;50.782;6.074;2023-04-09T04:19:47;100245.13;;;6.98;100.00
24858;BME280;12935;50.782;6.074;2023-04-09T04:22:12;100252.50;;;6.98;100.00
24858;BME280;12935;50.782;6.074;2023-04-09T04:24:37;100245.31;;;6.74;100.00
24858;BME280;12935;50.782;6.074;2023-04-09T04:27:03;100251.19;;;6.76;100.00
24858;BME280;12935;50.782;6.074;2023-04-09T04:29:28;100248.91;;;6.78;100.00
24858;BME280;12935;50.782;6.074;2023-04-09T04:31:53;100254.88;;;6.84;100.00
24858;BME280;12935;50.782;6.074;2023-04-09T04:34:18;100253.53;;;6.93;100.00
24858;BME280;12935;50.782;6.074;2023-04-09T04:36:44;100241.19;;;6.96;100.00
24858;BME280;12935;50.782;6.074;2023-04-09T04:39:09;100256.69;;;6.95;100.00
24858;BME280;12935;50.782;6.074;2023-04-09T04:41:34;100260.22;;;6.96;100.00
24858;BME280;12935;50.782;6.074;2023-04-09T04:44:00;100253.19;;;6.95;100.00
24858;BME280;12935;50.782;6.074;2023-04-09T04:46:25;100258.19;;;6.93;100.00
24858;BME280;12935;50.782;6.074;2023-04-09T04:48:50;100263.00;;;6.84;100.00
24858;BME280;12935;50.782;6.074;2023-04-09T04:51:15;100252.59;;;6.86;100.00
24858;BME280;12935;50.782;6.074;2023-04-09T04:53:41;100252.75;;;6.93;100.00
24858;BME280;12935;50.782;6.074;2023-04-09T04:56:14;100252.84;;;6.96;100.00
24858;BME280;12935;50.782;6.074;2023-04-09T04:58:40;100253.19;;;6.95;100.00
24858;BME280;12935;50.782;6.074;2023-04-09T05:01:05;100258.28;;;6.96;100.00
24858;BME280;12935;50.782;6.074;2023-04-09T05:03:30;100259.88;;;6.97;100.00
24858;BME280;12935;50.782;6.074;2023-04-09T05:05:55;100264.00;;;6.91;100.00
24858;BME280;12935;50.782;6.074;2023-04-09T05:08:21;100263.88;;;6.72;100.00
24858;BME280;12935;50.782;6.074;2023-04-09T05:10:46;100264.31;;;6.58;100.00
24858;BME280;12935;50.782;6.074;2023-04-09T05:13:11;100253.06;;;6.44;100.00
24858;BME280;12935;50.782;6.074;2023-04-09T05:15:37;100253.31;;;6.39;100.00
24858;BME280;12935;50.782;6.074;2023-04-09T05:18:03;100251.06;;;6.41;100.00
24858;BME280;12935;50.782;6.074;2023-04-09T05:20:29;100248.75;;;6.27;100.00
24858;BME280;12935;50.782;6.074;2023-04-09T05:22:55;100262.94;;;6.09;100.00
24858;BME280;12935;50.782;6.074;2023-04-09T05:25:20;100265.00;;;5.99;100.00
24858;BME280;12935;50.782;6.074;2023-04-09T05:27:45;100251.66;;;6.07;100.00
24858;BME280;12935;50.782;6.074;2023-04-09T05:30:11;100232.09;;;6.01;100.00
24858;BME280;12935;50.782;6.074;2023-04-09T05:32:36;100254.19;;;6.15;100.00
24858;BME280;12935;50.782;6.074;2023-04-09T05:35:02;100247.16;;;6.26;100.00
24858;BME280;12935;50.782;6.074;2023-04-09T05:37:27;100248.22;;;6.38;100.00
24858;BME280;12935;50.782;6.074;2023-04-09T05:39:52;100249.91;;;6.42;100.00
24858;BME280;12935;50.782;6.074;2023-04-09T05:42:18;100250.19;;;6.53;100.00
24858;BME280;12935;50.782;6.074;2023-04-09T05:44:43;100250.28;;;6.56;100.00
24858;BME280;12935;50.782;6.074;2023-04-09T05:47:08;100248.81;;;6.59;100.00
24858;BME280;12935;50.782;6.074;2023-04-09T05:49:33;100238.72;;;6.44;100.00
24858;BME280;12935;50.782;6.074;2023-04-09T05:51:59;100242.94;;;6.57;100.00
24858;BME280;12935;50.782;6.074;2023-04-09T05:54:24;100251.34;;;6.67;100.00
24858;BME280;12935;50.782;6.074;2023-04-09T05:56:50;100246.13;;;6.75;100.00
24858;BME280;12935;50.782;6.074;2023-04-09T05:59:16;100249.78;;;6.82;100.00
24858;BME280;12935;50.782;6.074;2023-04-09T06:01:42;100253.19;;;6.79;100.00
24858;BME280;12935;50.782;6.074;2023-04-09T06:04:07;100248.75;;;6.87;100.00
24858;BME280;12935;50.782;6.074;2023-04-09T06:06:33;100250.31;;;6.88;100.00
24858;BME280;12935;50.782;6.074;2023-04-09T06:08:58;100251.81;;;6.85;100.00
24858;BME280;12935;50.782;6.074;2023-04-09T06:11:23;100252.59;;;6.86;100.00
24858;BME280;12935;50.782;6.074;2023-04-09T06:13:50;100256.53;;;7.04;100.00
24858;BME280;12935;50.782;6.074;2023-04-09T06:16:15;100261.97;;;7.20;100.00
24858;BME280;12935;50.782;6.074;2023-04-09T06:18:41;100263.97;;;7.38;100.00
24858;BME280;12935;50.782;6.074;2023-04-09T06:21:07;100267.16;;;7.60;100.00
24858;BME280;12935;50.782;6.074;2023-04-09T06:23:34;100273.69;;;7.74;100.00
24858;BME280;12935;50.782;6.074;2023-04-09T06:25:59;100258.91;;;7.91;100.00
24858;BME280;12935;50.782;6.074;2023-04-09T06:28:26;100265.00;;;8.04;100.00
24858;BME280;12935;50.782;6.074;2023-04-09T06:30:52;100275.53;;;8.05;100.00
24858;BME280;12935;50.782;6.074;2023-04-09T06:33:19;100272.97;;;8.13;100.00
24858;BME280;12935;50.782;6.074;2023-04-09T06:35:44;100274.41;;;8.26;100.00
24858;BME280;12935;50.782;6.074;2023-04-09T06:38:10;100276.63;;;8.39;100.00
24858;BME280;12935;50.782;6.074;2023-04-09T06:40:38;100265.56;;;8.52;100.00
24858;BME280;12935;50.782;6.074;2023-04-09T06:43:04;100284.06;;;8.62;100.00
24858;BME280;12935;50.782;6.074;2023-04-09T06:45:30;100281.25;;;8.77;100.00
24858;BME280;12935;50.782;6.074;2023-04-09T06:47:56;100283.78;;;8.90;100.00
24858;BME280;12935;50.782;6.074;2023-04-09T06:50:22;100284.28;;;8.95;100.00
24858;BME280;12935;50.782;6.074;2023-04-09T06:52:47;100286.47;;;9.09;100.00
24858;BME280;12935;50.782;6.074;2023-04-09T06:55:12;100278.22;;;9.05;100.00
24858;BME280;12935;50.782;6.074;2023-04-09T06:57:38;100285.91;;;9.23;100.00
24858;BME280;12935;50.782;6.074;2023-04-09T07:00:04;100283.47;;;9.40;100.00
24858;BME280;12935;50.782;6.074;2023-04-09T07:02:29;100277.91;;;9.60;100.00
24858;BME280;12935;50.782;6.074;2023-04-09T07:04:55;100289.41;;;9.72;100.00
24858;BME280;12935;50.782;6.074;2023-04-09T07:07:20;100279.47;;;9.87;100.00
24858;BME280;12935;50.782;6.074;2023-04-09T07:09:47;100271.88;;;10.03;100.00
24858;BME280;12935;50.782;6.074;2023-04-09T07:12:12;100277.59;;;10.21;100.00
24858;BME280;12935;50.782;6.074;2023-04-09T07:14:37;100276.56;;;10.33;100.00
24858;BME280;12935;50.782;6.074;2023-04-09T07:17:03;100288.31;;;10.37;100.00
24858;BME280;12935;50.782;6.074;2023-04-09T07:19:28;100290.25;;;10.36;100.00
24858;BME280;12935;50.782;6.074;2023-04-09T07:21:54;100292.31;;;10.46;100.00
24858;BME280;12935;50.782;6.074;2023-04-09T07:24:19;100287.38;;;10.59;100.00
24858;BME280;12935;50.782;6.074;2023-04-09T07:26:44;100292.63;;;10.75;100.00
24858;BME280;12935;50.782;6.074;2023-04-09T07:29:10;100293.91;;;10.84;100.00
24858;BME280;12935;50.782;6.074;2023-04-09T07:31:35;100290.72;;;10.79;100.00
24858;BME280;12935;50.782;6.074;2023-04-09T07:34:01;100298.66;;;10.91;100.00
24858;BME280;12935;50.782;6.074;2023-04-09T07:36:26;100298.78;;;11.05;100.00
24858;BME280;12935;50.782;6.074;2023-04-09T07:38:52;100302.00;;;11.14;100.00
24858;BME280;12935;50.782;6.074;2023-04-09T07:41:17;100310.63;;;11.16;100.00
24858;BME280;12935;50.782;6.074;2023-04-09T07:43:42;100299.72;;;11.23;100.00
24858;BME280;12935;50.782;6.074;2023-04-09T07:46:08;100308.88;;;11.42;100.00
24858;BME280;12935;50.782;6.074;2023-04-09T07:48:33;100305.09;;;11.60;100.00
24858;BME280;12935;50.782;6.074;2023-04-09T07:50:58;100309.19;;;11.84;100.00
24858;BME280;12935;50.782;6.074;2023-04-09T07:53:24;100305.78;;;12.05;100.00
24858;BME280;12935;50.782;6.074;2023-04-09T07:55:50;100302.69;;;12.17;100.00
24858;BME280;12935;50.782;6.074;2023-04-09T07:58:16;100305.88;;;12.30;100.00
24858;BME280;12935;50.782;6.074;2023-04-09T08:00:41;100301.63;;;12.40;100.00
24858;BME280;12935;50.782;6.074;2023-04-09T08:03:06;100298.09;;;12.39;100.00
24858;BME280;12935;50.782;6.074;2023-04-09T08:05:32;100306.72;;;12.41;100.00
24858;BME280;12935;50.782;6.074;2023-04-09T08:07:57;100303.97;;;12.45;100.00
24858;BME280;12935;50.782;6.074;2023-04-09T08:10:22;100301.28;;;12.52;100.00
24858;BME280;12935;50.782;6.074;2023-04-09T08:12:48;100305.16;;;12.44;100.00
24858;BME280;12935;50.782;6.074;2023-04-09T08:15:14;100299.59;;;12.22;100.00
24858;BME280;12935;50.782;6.074;2023-04-09T08:17:39;100309.03;;;12.32;100.00
24858;BME280;12935;50.782;6.074;2023-04-09T08:20:05;100303.56;;;12.36;99.03
24858;BME280;12935;50.782;6.074;2023-04-09T08:22:31;100302.59;;;11.92;97.41
24858;BME280;12935;50.782;6.074;2023-04-09T08:24:57;100297.91;;;11.97;100.00
24858;BME280;12935;50.782;6.074;2023-04-09T08:27:23;100299.84;;;11.92;99.21
24858;BME280;12935;50.782;6.074;2023-04-09T08:29:48;100305.63;;;11.77;97.56
24858;BME280;12935;50.782;6.074;2023-04-09T08:32:14;100298.09;;;11.70;98.58
24858;BME280;12935;50.782;6.074;2023-04-09T08:34:39;100299.66;;;11.64;98.91
24858;BME280;12935;50.782;6.074;2023-04-09T08:37:05;100299.25;;;11.62;100.00
24858;BME280;12935;50.782;6.074;2023-04-09T08:39:31;100293.63;;;11.96;98.23
24858;BME280;12935;50.782;6.074;2023-04-09T08:41:59;100301.19;;;11.65;96.81
24858;BME280;12935;50.782;6.074;2023-04-09T08:44:26;100301.56;;;11.60;97.89
24858;BME280;12935;50.782;6.074;2023-04-09T08:46:52;100295.72;;;11.65;96.72
24858;BME280;12935;50.782;6.074;2023-04-09T08:49:18;100298.19;;;11.77;96.35
24858;BME280;12935;50.782;6.074;2023-04-09T08:51:47;100292.41;;;11.93;96.79
24858;BME280;12935;50.782;6.074;2023-04-09T08:54:16;100291.97;;;11.84;93.92
24858;BME280;12935;50.782;6.074;2023-04-09T08:56:44;100291.16;;;11.83;93.77
24858;BME280;12935;50.782;6.074;2023-04-09T08:59:10;100287.69;;;11.90;92.96
24858;BME280;12935;50.782;6.074;2023-04-09T09:01:35;100286.88;;;11.82;89.25
24858;BME280;12935;50.782;6.074;2023-04-09T09:04:02;100281.81;;;11.88;89.52
24858;BME280;12935;50.782;6.074;2023-04-09T09:09:11;100282.06;;;12.41;84.85
24858;BME280;12935;50.782;6.074;2023-04-09T09:11:39;100274.63;;;12.42;81.10
24858;BME280;12935;50.782;6.074;2023-04-09T09:14:07;100270.38;;;12.58;78.65
24858;BME280;12935;50.782;6.074;2023-04-09T09:16:37;100276.66;;;12.80;79.25
24858;BME280;12935;50.782;6.074;2023-04-09T09:19:07;100269.69;;;13.22;76.32
24858;BME280;12935;50.782;6.074;2023-04-09T09:21:32;100279.06;;;13.39;76.05
24858;BME280;12935;50.782;6.074;2023-04-09T09:23:58;100277.88;;;13.11;75.25
24858;BME280;12935;50.782;6.074;2023-04-09T09:26:27;100275.50;;;12.85;79.73
24858;BME280;12935;50.782;6.074;2023-04-09T09:28:53;100276.28;;;12.75;84.50
24858;BME280;12935;50.782;6.074;2023-04-09T09:31:20;100274.72;;;12.74;84.80
24858;BME280;12935;50.782;6.074;2023-04-09T09:33:46;100282.53;;;12.72;81.82
24858;BME280;12935;50.782;6.074;2023-04-09T09:36:13;100275.88;;;12.80;81.52
24858;BME280;12935;50.782;6.074;2023-04-09T09:38:55;100276.66;;;12.84;79.22
24858;BME280;12935;50.782;6.074;2023-04-09T09:41:21;100277.06;;;12.96;79.46
24858;BME280;12935;50.782;6.074;2023-04-09T09:43:47;100278.25;;;12.99;77.87
24858;BME280;12935;50.782;6.074;2023-04-09T09:46:14;100279.41;;;12.73;76.72
24858;BME280;12935;50.782;6.074;2023-04-09T09:48:39;100287.63;;;12.80;76.38
24858;BME280;12935;50.782;6.074;2023-04-09T09:51:09;100277.84;;;12.93;75.70
24858;BME280;12935;50.782;6.074;2023-04-09T09:53:36;100274.72;;;12.98;75.04
24858;BME280;12935;50.782;6.074;2023-04-09T09:56:04;100273.56;;;13.03;74.40
24858;BME280;12935;50.782;6.074;2023-04-09T10:01:41;100268.84;;;12.86;73.35
24858;BME280;12935;50.782;6.074;2023-04-09T10:04:08;100267.69;;;13.05;74.88
24858;BME280;12935;50.782;6.074;2023-04-09T10:06:39;100261.44;;;13.32;72.78
24858;BME280;12935;50.782;6.074;2023-04-09T10:09:07;100262.59;;;13.42;73.11
24858;BME280;12935;50.782;6.074;2023-04-09T10:11:34;100263.00;;;13.44;71.61
24858;BME280;12935;50.782;6.074;2023-04-09T10:14:01;100261.31;;;13.89;71.36
24858;BME280;12935;50.782;6.074;2023-04-09T10:16:26;100259.69;;;14.86;69.51
24858;BME280;12935;50.782;6.074;2023-04-09T10:18:56;100268.31;;;15.40;64.82
24858;BME280;12935;50.782;6.074;2023-04-09T10:24:11;100264.28;;;15.48;63.32
24858;BME280;12935;50.782;6.074;2023-04-09T10:26:40;100264.66;;;15.50;66.41
24858;BME280;12935;50.782;6.074;2023-04-09T10:29:10;100248.94;;;15.06;60.49
24858;BME280;12935;50.782;6.074;2023-04-09T10:31:50;100262.03;;;14.91;61.65
24858;BME280;12935;50.782;6.074;2023-04-09T10:34:25;100258.09;;;14.92;63.23
24858;BME280;12935;50.782;6.074;2023-04-09T10:36:55;100249.00;;;14.95;64.20
24858;BME280;12935;50.782;6.074;2023-04-09T10:39:29;100259.91;;;15.09;63.12
24858;BME280;12935;50.782;6.074;2023-04-09T10:41:57;100245.16;;;14.82;64.52
24858;BME280;12935;50.782;6.074;2023-04-09T10:44:27;100248.13;;;14.50;61.40
24858;BME280;12935;50.782;6.074;2023-04-09T10:46:53;100248.63;;;14.24;62.85
24858;BME280;12935;50.782;6.074;2023-04-09T10:49:23;100241.16;;;14.28;63.03
24858;BME280;12935;50.782;6.074;2023-04-09T10:52:09;100239.06;;;14.53;62.92
24858;BME280;12935;50.782;6.074;2023-04-09T10:54:44;100238.88;;;15.30;61.50
24858;BME280;12935;50.782;6.074;2023-04-09T10:57:11;100238.19;;;16.31;59.92
24858;BME280;12935;50.782;6.074;2023-04-09T10:59:39;100240.38;;;16.13;54.97
24858;BME280;12935;50.782;6.074;2023-04-09T11:02:13;100232.53;;;15.36;56.73
24858;BME280;12935;50.782;6.074;2023-04-09T11:07:27;100232.56;;;15.33;57.10
24858;BME280;12935;50.782;6.074;2023-04-09T11:09:54;100219.69;;;15.64;56.22
24858;BME280;12935;50.782;6.074;2023-04-09T11:12:20;100221.44;;;14.99;55.81
24858;BME280;12935;50.782;6.074;2023-04-09T11:14:45;100217.75;;;15.16;57.10
24858;BME280;12935;50.782;6.074;2023-04-09T11:17:11;100221.09;;;15.41;56.35
24858;BME280;12935;50.782;6.074;2023-04-09T11:19:37;100211.03;;;15.62;55.95
24858;BME280;12935;50.782;6.074;2023-04-09T11:22:03;100208.53;;;15.74;53.86
24858;BME280;12935;50.782;6.074;2023-04-09T11:24:43;100211.78;;;16.30;52.97
24858;BME280;12935;50.782;6.074;2023-04-09T11:27:08;100204.84;;;17.46;51.97
24858;BME280;12935;50.782;6.074;2023-04-09T11:29:37;100205.69;;;17.43;49.56
24858;BME280;12935;50.782;6.074;2023-04-09T11:32:03;100199.38;;;17.19;48.37
24858;BME280;12935;50.782;6.074;2023-04-09T11:34:31;100201.25;;;17.69;46.45
24858;BME280;12935;50.782;6.074;2023-04-09T11:36:56;100191.72;;;17.30;47.30
24858;BME280;12935;50.782;6.074;2023-04-09T11:39:24;100199.34;;;17.66;47.56
24858;BME280;12935;50.782;6.074;2023-04-09T11:41:50;100198.47;;;17.02;46.72
24858;BME280;12935;50.782;6.074;2023-04-09T11:44:15;100189.84;;;16.77;47.75
24858;BME280;12935;50.782;6.074;2023-04-09T11:46:41;100191.47;;;17.21;47.66
24858;BME280;12935;50.782;6.074;2023-04-09T11:49:07;100173.91;;;17.94;45.93
24858;BME280;12935;50.782;6.074;2023-04-09T11:51:33;100188.59;;;18.79;44.41
24858;BME280;12935;50.782;6.074;2023-04-09T11:54:04;100195.22;;;19.88;45.54
24858;BME280;12935;50.782;6.074;2023-04-09T11:56:29;100190.38;;;21.19;43.80
24858;BME280;12935;50.782;6.074;2023-04-09T11:58:55;100182.84;;;20.31;40.19
24858;BME280;12935;50.782;6.074;2023-04-09T12:01:21;100191.63;;;19.46;40.94
24858;BME280;12935;50.782;6.074;2023-04-09T12:03:54;100182.09;;;19.02;41.41
24858;BME280;12935;50.782;6.074;2023-04-09T12:06:21;100175.75;;;20.30;40.42
24858;BME280;12935;50.782;6.074;2023-04-09T12:08:57;100178.38;;;20.97;39.48
24858;BME280;12935;50.782;6.074;2023-04-09T12:11:31;100175.44;;;21.91;37.21
24858;BME280;12935;50.782;6.074;2023-04-09T12:14:04;100177.34;;;21.73;37.51
24858;BME280;12935;50.782;6.074;2023-04-09T12:16:30;100181.88;;;20.76;36.45
24858;BME280;12935;50.782;6.074;2023-04-09T12:19:06;100179.34;;;20.56;37.31
24858;BME280;12935;50.782;6.074;2023-04-09T12:24:10;100174.19;;;19.62;37.82
24858;BME280;12935;50.782;6.074;2023-04-09T12:26:36;100181.50;;;18.42;40.24
24858;BME280;12935;50.782;6.074;2023-04-09T12:29:01;100183.03;;;18.63;41.05
24858;BME280;12935;50.782;6.074;2023-04-09T12:31:26;100181.81;;;19.13;41.05
24858;BME280;12935;50.782;6.074;2023-04-09T12:33:51;100183.81;;;19.41;40.44
24858;BME280;12935;50.782;6.074;2023-04-09T12:36:17;100183.75;;;19.74;39.74
24858;BME280;12935;50.782;6.074;2023-04-09T12:38:42;100178.78;;;20.48;38.89
24858;BME280;12935;50.782;6.074;2023-04-09T12:41:07;100182.69;;;21.11;36.76
24858;BME280;12935;50.782;6.074;2023-04-09T12:43:33;100185.22;;;20.58;36.96
24858;BME280;12935;50.782;6.074;2023-04-09T12:45:58;100173.13;;;20.39;37.49
24858;BME280;12935;50.782;6.074;2023-04-09T12:48:24;100176.09;;;20.70;36.90
24858;BME280;12935;50.782;6.074;2023-04-09T12:50:49;100171.88;;;20.53;36.84
24858;BME280;12935;50.782;6.074;2023-04-09T12:53:15;100174.13;;;19.78;36.73
24858;BME280;12935;50.782;6.074;2023-04-09T12:55:40;100167.88;;;20.28;37.36
24858;BME280;12935;50.782;6.074;2023-04-09T12:58:05;100165.75;;;21.18;36.64
24858;BME280;12935;50.782;6.074;2023-04-09T13:00:31;100151.66;;;22.61;35.00
24858;BME280;12935;50.782;6.074;2023-04-09T13:02:57;100149.41;;;22.29;33.68
24858;BME280;12935;50.782;6.074;2023-04-09T13:05:22;100162.00;;;21.90;35.24
24858;BME280;12935;50.782;6.074;2023-04-09T13:07:48;100155.84;;;21.73;35.55